WXM80 ListenWXM80 Stop

You find our weather info also at:

UK Metoffice

WeatherCloud

Weather Underground

Northeastern Weather Network

AWEKAS

Citizen Weather Observer Program (CWOP)

HAMweather, WeatherForYou, PWS Weather


Weather Underground History page Text

Daily Summary for July 16, 2017 Units:  English    Metric   Both
« Previous Day
Next Day »
Daily Weekly Monthly Yearly Custom
  High: Low: Average:
Temperature: 91.2 °F 65.0 °F 77.7 °F
Dew Point: 72.4 °F 62.7 °F 67.2 °F
Humidity: 97 % 45 % 73 %
Wind Speed: 4.5 mph 0.0 mph 0.7 mph
Wind Gust: 5.8 mph - -
Wind:- - SW
Pressure: 29.96 in 29.87 in -
Precipitation: 0.00 in    
Historical Graphs
 
 
Tabular Data for July 16, 2017
Time Temperature Dew Point Pressure Wind Wind Speed Wind Gust Humidity Rainfall Rate (Hourly)
00:04 70.8 °F 64.7 °F 29.88 in Calm     81 % 0.00 in
00:09 70.7 °F 64.9 °F 29.88 in Calm     82 % 0.00 in
00:14 70.6 °F 65.2 °F 29.88 in WSW 0.1 mph 1.2 mph 83 % 0.00 in
00:19 70.5 °F 65.1 °F 29.88 in Calm     83 % 0.00 in
00:24 70.4 °F 65.0 °F 29.88 in Calm     83 % 0.00 in
00:29 70.3 °F 65.2 °F 29.88 in West 0.9 mph 3.5 mph 84 % 0.00 in
00:34 70.2 °F 64.8 °F 29.88 in Calm     83 % 0.00 in
00:39 70.1 °F 65.0 °F 29.88 in West 1.2 mph 3.5 mph 84 % 0.00 in
00:44 70.0 °F 64.9 °F 29.87 in Calm     84 % 0.00 in
00:49 69.9 °F 64.8 °F 29.88 in West 0.3 mph 1.2 mph 84 % 0.00 in
00:54 69.8 °F 64.7 °F 29.88 in West 0.3 mph 2.0 mph 84 % 0.00 in
01:00 69.7 °F 64.6 °F 29.88 in Calm     84 % 0.00 in
01:05 69.7 °F 64.6 °F 29.88 in Calm   1.0 mph 84 % 0.00 in
01:10 69.7 °F 64.6 °F 29.88 in Calm   1.2 mph 84 % 0.00 in
01:15 69.7 °F 64.6 °F 29.87 in Calm   1.2 mph 84 % 0.00 in
01:20 69.7 °F 64.6 °F 29.87 in West 1.3 mph 2.3 mph 84 % 0.00 in
01:25 69.6 °F 64.9 °F 29.87 in Calm   1.0 mph 85 % 0.00 in
01:30 69.6 °F 64.9 °F 29.87 in West 0.1 mph 1.2 mph 85 % 0.00 in
01:35 69.5 °F 64.8 °F 29.87 in Calm   1.2 mph 85 % 0.00 in
01:40 69.5 °F 65.1 °F 29.87 in Calm     86 % 0.00 in
01:45 69.4 °F 65.0 °F 29.87 in Calm     86 % 0.00 in
01:50 69.4 °F 65.0 °F 29.87 in Calm     86 % 0.00 in
01:55 69.3 °F 64.9 °F 29.87 in Calm     86 % 0.00 in
02:00 69.2 °F 64.8 °F 29.87 in Calm   1.0 mph 86 % 0.00 in
02:05 69.1 °F 64.7 °F 29.88 in Calm     86 % 0.00 in
02:10 69.0 °F 64.6 °F 29.87 in West 0.2 mph 1.2 mph 86 % 0.00 in
02:15 68.9 °F 64.5 °F 29.87 in Calm   1.2 mph 86 % 0.00 in
02:20 68.8 °F 64.8 °F 29.87 in Calm   1.2 mph 87 % 0.00 in
02:25 68.7 °F 64.7 °F 29.87 in Calm     87 % 0.00 in
02:30 68.6 °F 64.6 °F 29.88 in Calm     87 % 0.00 in
02:35 68.5 °F 64.5 °F 29.88 in Calm     87 % 0.00 in
02:40 68.4 °F 64.4 °F 29.88 in West 0.2 mph 1.2 mph 87 % 0.00 in
02:45 68.3 °F 64.3 °F 29.88 in West 0.2 mph 1.2 mph 87 % 0.00 in
02:50 68.1 °F 64.4 °F 29.87 in Calm     88 % 0.00 in
02:55 68.1 °F 64.4 °F 29.88 in Calm     88 % 0.00 in
03:00 67.9 °F 64.2 °F 29.87 in Calm     88 % 0.00 in
03:05 67.9 °F 64.2 °F 29.87 in Calm     88 % 0.00 in
03:10 67.8 °F 64.1 °F 29.87 in Calm     88 % 0.00 in
03:15 67.7 °F 64.0 °F 29.88 in Calm     88 % 0.00 in
03:20 67.6 °F 63.9 °F 29.87 in Calm     88 % 0.00 in
03:21 67.6 °F 63.9 °F 29.87 in Calm     88 % 0.00 in
03:26 67.5 °F 64.1 °F 29.87 in Calm   1.0 mph 89 % 0.00 in
03:31 67.3 °F 64.0 °F 29.87 in Calm   1.0 mph 89 % 0.00 in
03:36 67.2 °F 63.8 °F 29.87 in Calm     89 % 0.00 in
03:41 67.1 °F 63.8 °F 29.87 in Calm     89 % 0.00 in
03:46 67.0 °F 63.6 °F 29.87 in Calm     89 % 0.00 in
03:51 66.9 °F 63.6 °F 29.87 in Calm   1.0 mph 89 % 0.00 in
03:56 66.8 °F 63.8 °F 29.87 in Calm   1.0 mph 90 % 0.00 in
04:01 66.7 °F 63.7 °F 29.87 in Calm     90 % 0.00 in
04:06 66.5 °F 63.5 °F 29.87 in Calm     90 % 0.00 in
04:11 66.5 °F 63.5 °F 29.87 in Calm     90 % 0.00 in
04:16 66.4 °F 63.7 °F 29.87 in Calm     91 % 0.00 in
04:21 66.3 °F 63.6 °F 29.87 in Calm     91 % 0.00 in
04:26 66.2 °F 63.5 °F 29.88 in Calm   1.2 mph 91 % 0.00 in
04:31 66.1 °F 63.1 °F 29.88 in Calm     90 % 0.00 in
04:36 65.9 °F 62.9 °F 29.88 in Calm     90 % 0.00 in
04:41 65.9 °F 62.9 °F 29.88 in Calm     90 % 0.00 in
04:46 65.8 °F 63.1 °F 29.88 in Calm     91 % 0.00 in
04:51 65.7 °F 63.0 °F 29.88 in Calm     91 % 0.00 in
04:56 65.6 °F 62.9 °F 29.88 in Calm     91 % 0.00 in
05:01 65.5 °F 62.8 °F 29.88 in Calm     91 % 0.00 in
05:06 65.4 °F 62.7 °F 29.88 in Calm     91 % 0.00 in
05:11 65.3 °F 62.9 °F 29.88 in Calm     92 % 0.00 in
05:16 65.3 °F 62.9 °F 29.89 in Calm     92 % 0.00 in
05:21 65.2 °F 62.8 °F 29.89 in West 0.2 mph 1.2 mph 92 % 0.00 in
05:26 65.2 °F 62.8 °F 29.89 in Calm   1.2 mph 92 % 0.00 in
05:31 65.1 °F 63.0 °F 29.89 in Calm     93 % 0.00 in
05:36 65.1 °F 63.0 °F 29.89 in Calm     93 % 0.00 in
05:41 65.1 °F 63.0 °F 29.89 in Calm     93 % 0.00 in
05:46 65.0 °F 62.9 °F 29.89 in Calm     93 % 0.00 in
05:51 65.0 °F 62.9 °F 29.89 in Calm     93 % 0.00 in
05:56 65.0 °F 62.9 °F 29.90 in Calm   1.0 mph 93 % 0.00 in
06:01 65.0 °F 62.9 °F 29.90 in Calm     93 % 0.00 in
06:06 65.0 °F 62.9 °F 29.90 in Calm     93 % 0.00 in
06:11 65.0 °F 62.9 °F 29.90 in West 0.1 mph 1.2 mph 93 % 0.00 in
06:16 65.1 °F 63.3 °F 29.90 in West 0.5 mph   94 % 0.00 in
06:21 65.2 °F 63.4 °F 29.90 in West 0.2 mph 1.2 mph 94 % 0.00 in
06:27 65.3 °F 63.5 °F 29.90 in Calm     94 % 0.00 in
06:32 65.5 °F 64.0 °F 29.90 in Calm     95 % 0.00 in
06:37 65.9 °F 64.7 °F 29.90 in Calm     96 % 0.00 in
06:42 66.4 °F 65.2 °F 29.90 in Calm     96 % 0.00 in
06:47 66.5 °F 65.3 °F 29.90 in West 0.1 mph   96 % 0.00 in
06:52 66.8 °F 65.6 °F 29.90 in West 0.1 mph 1.2 mph 96 % 0.00 in
06:57 67.2 °F 66.0 °F 29.91 in Calm   1.2 mph 96 % 0.00 in
07:02 67.5 °F 66.3 °F 29.91 in West 0.1 mph 1.2 mph 96 % 0.00 in
07:07 67.9 °F 67.0 °F 29.91 in Calm   1.2 mph 97 % 0.00 in
07:12 68.2 °F 67.0 °F 29.91 in West 0.9 mph 3.5 mph 96 % 0.00 in
07:17 68.6 °F 67.4 °F 29.91 in WNW 1.0 mph 3.5 mph 96 % 0.00 in
07:22 68.9 °F 67.7 °F 29.91 in WNW 0.8 mph 2.3 mph 96 % 0.00 in
07:27 69.3 °F 68.1 °F 29.91 in WNW 0.6 mph 3.0 mph 96 % 0.00 in
07:32 69.6 °F 68.4 °F 29.91 in WNW 0.4 mph 2.3 mph 96 % 0.00 in
07:37 69.9 °F 68.4 °F 29.91 in WNW 2.4 mph 4.6 mph 95 % 0.00 in
07:42 70.2 °F 68.4 °F 29.91 in WNW 0.4 mph 1.2 mph 94 % 0.00 in
07:47 70.3 °F 68.2 °F 29.91 in WSW 1.5 mph 3.5 mph 93 % 0.00 in
07:52 70.4 °F 67.6 °F 29.91 in West 1.1 mph 3.5 mph 91 % 0.00 in
07:57 70.5 °F 67.4 °F 29.91 in WNW 0.9 mph 3.5 mph 90 % 0.00 in
08:02 70.7 °F 67.6 °F 29.91 in WSW 1.9 mph 3.5 mph 90 % 0.00 in
08:07 70.8 °F 67.1 °F 29.91 in NW 2.2 mph 5.0 mph 88 % 0.00 in
08:12 70.9 °F 67.2 °F 29.92 in NW 3.3 mph 4.6 mph 88 % 0.00 in
08:17 71.0 °F 66.9 °F 29.91 in WNW 1.7 mph 2.3 mph 87 % 0.00 in
08:18 71.0 °F 66.9 °F 29.91 in WNW 2.0 mph 3.5 mph 87 % 0.00 in
08:23 71.1 °F 67.0 °F 29.91 in WNW 1.3 mph 3.5 mph 87 % 0.00 in
08:28 71.2 °F 66.8 °F 29.92 in NW 2.6 mph 3.5 mph 86 % 0.00 in
08:33 71.3 °F 66.9 °F 29.92 in West 0.6 mph 3.5 mph 86 % 0.00 in
08:38 71.4 °F 67.0 °F 29.92 in WNW 0.8 mph 3.5 mph 86 % 0.00 in
08:43 71.5 °F 66.8 °F 29.92 in WNW 2.3 mph 5.0 mph 85 % 0.00 in
08:48 71.6 °F 66.8 °F 29.92 in NW 1.6 mph 4.6 mph 85 % 0.00 in
08:53 71.8 °F 67.4 °F 29.92 in WSW 1.2 mph 5.0 mph 86 % 0.00 in
08:58 71.9 °F 66.8 °F 29.92 in North 0.5 mph 2.3 mph 84 % 0.00 in
09:04 72.0 °F 66.9 °F 29.92 in NW 1.7 mph 3.5 mph 84 % 0.00 in
09:08 72.2 °F 67.1 °F 29.92 in West 1.1 mph 3.5 mph 84 % 0.00 in
09:13 72.3 °F 67.2 °F 29.91 in Calm     84 % 0.00 in
09:19 72.4 °F 67.3 °F 29.91 in NW 0.7 mph 3.5 mph 84 % 0.00 in
09:24 72.5 °F 67.0 °F 29.91 in SSE 0.1 mph 3.5 mph 83 % 0.00 in
09:29 72.6 °F 66.8 °F 29.91 in NW 1.6 mph 3.5 mph 82 % 0.00 in
09:34 72.7 °F 66.9 °F 29.91 in WNW 2.7 mph 5.8 mph 82 % 0.00 in
09:39 72.9 °F 67.1 °F 29.91 in WNW 2.4 mph 4.0 mph 82 % 0.00 in
09:44 73.1 °F 67.3 °F 29.91 in NNW 0.1 mph 1.2 mph 82 % 0.00 in
09:49 73.5 °F 68.0 °F 29.91 in WSW 1.2 mph 3.5 mph 83 % 0.00 in
09:54 73.9 °F 68.1 °F 29.91 in West 3.4 mph 4.6 mph 82 % 0.00 in
09:59 74.4 °F 68.2 °F 29.91 in West 1.2 mph 3.5 mph 81 % 0.00 in
10:04 75.1 °F 68.9 °F 29.91 in Calm   2.3 mph 81 % 0.00 in
10:09 76.1 °F 69.5 °F 29.92 in NW 1.4 mph 5.8 mph 80 % 0.00 in
10:14 77.1 °F 68.9 °F 29.91 in WNW 3.2 mph 5.8 mph 76 % 0.00 in
10:19 78.3 °F 70.9 °F 29.91 in WSW 1.2 mph 3.5 mph 78 % 0.00 in
10:25 79.2 °F 70.6 °F 29.91 in WNW 2.2 mph 3.0 mph 75 % 0.00 in
10:30 80.0 °F 71.4 °F 29.91 in West 1.7 mph 3.5 mph 75 % 0.00 in
10:35 81.1 °F 72.4 °F 29.92 in WSW 0.2 mph 1.2 mph 75 % 0.00 in
10:40 81.9 °F 71.2 °F 29.92 in WSW 1.9 mph 4.0 mph 70 % 0.00 in
10:45 82.6 °F 72.2 °F 29.92 in NW 0.3 mph 1.2 mph 71 % 0.00 in
10:50 83.4 °F 72.2 °F 29.92 in NW 1.6 mph 4.0 mph 69 % 0.00 in
10:55 83.8 °F 70.3 °F 29.92 in West 1.7 mph 3.5 mph 64 % 0.00 in
11:00 84.3 °F 72.1 °F 29.92 in WSW 0.8 mph 2.3 mph 67 % 0.00 in
11:05 85.0 °F 71.9 °F 29.92 in NNE 0.2 mph 2.3 mph 65 % 0.00 in
11:10 85.5 °F 71.0 °F 29.91 in West 3.2 mph 5.8 mph 62 % 0.00 in
11:15 85.9 °F 71.4 °F 29.92 in NW 1.2 mph 2.3 mph 62 % 0.00 in
11:20 86.2 °F 71.6 °F 29.92 in North 2.0 mph 3.5 mph 62 % 0.00 in
11:25 86.7 °F 71.2 °F 29.92 in North 1.0 mph 3.5 mph 60 % 0.00 in
11:30 87.0 °F 72.4 °F 29.92 in NW 0.7 mph 3.5 mph 62 % 0.00 in
11:35 87.2 °F 69.6 °F 29.92 in West 2.0 mph 3.5 mph 56 % 0.00 in
11:40 87.4 °F 71.8 °F 29.91 in WNW 0.8 mph 4.0 mph 60 % 0.00 in
11:45 87.5 °F 68.8 °F 29.91 in WNW 2.1 mph 3.5 mph 54 % 0.00 in
11:50 87.7 °F 69.5 °F 29.91 in NW 0.9 mph 5.0 mph 55 % 0.00 in
11:55 87.8 °F 69.1 °F 29.91 in WNW 0.9 mph 3.5 mph 54 % 0.00 in
12:00 87.9 °F 68.1 °F 29.91 in WNW 2.2 mph 5.8 mph 52 % 0.00 in
12:05 88.1 °F 70.4 °F 29.91 in North 1.3 mph 5.8 mph 56 % 0.00 in
12:10 88.0 °F 68.7 °F 29.91 in NW 0.6 mph 3.5 mph 53 % 0.00 in
12:15 88.2 °F 69.5 °F 29.91 in SSW 1.7 mph 4.6 mph 54 % 0.00 in
12:20 88.3 °F 70.6 °F 29.91 in West 0.1 mph 1.2 mph 56 % 0.00 in
12:25 88.5 °F 69.2 °F 29.91 in WNW 3.0 mph 4.6 mph 53 % 0.00 in
12:30 88.6 °F 69.8 °F 29.91 in NW 0.2 mph 3.5 mph 54 % 0.00 in
12:35 88.7 °F 69.4 °F 29.91 in North 2.6 mph 4.6 mph 53 % 0.00 in
12:40 88.9 °F 69.6 °F 29.90 in WSW 2.2 mph 3.5 mph 53 % 0.00 in
12:45 89.1 °F 72.4 °F 29.90 in NE 0.3 mph 1.0 mph 58 % 0.00 in
12:50 89.2 °F 69.8 °F 29.90 in SSW 1.4 mph 3.0 mph 53 % 0.00 in
12:56 89.3 °F 69.4 °F 29.90 in WNW 2.0 mph 5.0 mph 52 % 0.00 in
13:01 89.4 °F 68.9 °F 29.90 in NW 0.4 mph 3.5 mph 51 % 0.00 in
13:02 89.4 °F 68.9 °F 29.90 in NW 0.2 mph 2.3 mph 51 % 0.00 in
13:07 89.6 °F 69.1 °F 29.91 in NW 1.7 mph 5.0 mph 51 % 0.00 in
13:12 89.7 °F 68.6 °F 29.91 in WNW 1.5 mph 3.5 mph 50 % 0.00 in
13:17 89.7 °F 69.2 °F 29.91 in WNW 0.6 mph 3.5 mph 51 % 0.00 in
13:22 89.7 °F 68.6 °F 29.91 in WNW 0.5 mph 3.5 mph 50 % 0.00 in
13:27 89.8 °F 70.4 °F 29.91 in NW 1.6 mph 3.5 mph 53 % 0.00 in
13:32 89.8 °F 69.3 °F 29.91 in West 1.0 mph 3.0 mph 51 % 0.00 in
13:37 89.8 °F 68.7 °F 29.91 in WSW 0.1 mph 2.3 mph 50 % 0.00 in
13:42 90.0 °F 70.0 °F 29.91 in WNW 0.3 mph 2.3 mph 52 % 0.00 in
13:47 90.1 °F 69.5 °F 29.91 in SW 2.0 mph 5.8 mph 51 % 0.00 in
13:52 90.2 °F 68.5 °F 29.90 in WSW 0.4 mph 3.5 mph 49 % 0.00 in
13:54 90.2 °F 70.8 °F 29.91 in NW 0.4 mph 2.3 mph 53 % 0.00 in
13:59 90.2 °F 70.2 °F 29.91 in WNW 1.8 mph 5.8 mph 52 % 0.00 in
14:04 90.3 °F 69.1 °F 29.91 in NW 2.0 mph 3.5 mph 50 % 0.00 in
14:09 90.4 °F 68.6 °F 29.91 in WNW 1.1 mph 4.0 mph 49 % 0.00 in
14:14 90.4 °F 70.4 °F 29.91 in WNW 0.1 mph 1.2 mph 52 % 0.00 in
14:19 90.6 °F 70.6 °F 29.90 in WSW 1.6 mph 3.5 mph 52 % 0.00 in
14:24 90.5 °F 67.5 °F 29.90 in NNW 0.9 mph 3.5 mph 47 % 0.00 in
14:27 90.6 °F 68.8 °F 29.90 in WNW 0.8 mph 1.2 mph 49 % 0.00 in
14:32 90.6 °F 68.8 °F 29.90 in WNW 1.2 mph 5.8 mph 49 % 0.00 in
14:37 90.8 °F 70.2 °F 29.90 in North 1.4 mph 3.5 mph 51 % 0.00 in
14:42 90.8 °F 68.4 °F 29.90 in SW 1.4 mph 3.5 mph 48 % 0.00 in
14:47 90.9 °F 69.1 °F 29.90 in WNW 1.7 mph 3.5 mph 49 % 0.00 in
14:52 91.0 °F 70.9 °F 29.90 in NNW 1.1 mph 3.5 mph 52 % 0.00 in
14:57 91.1 °F 68.7 °F 29.90 in NW 1.3 mph 3.5 mph 48 % 0.00 in
15:02 91.1 °F 67.4 °F 29.90 in NW 1.5 mph 3.0 mph 46 % 0.00 in
15:07 91.1 °F 69.9 °F 29.90 in WNW 0.4 mph 3.5 mph 50 % 0.00 in
15:12 91.1 °F 69.9 °F 29.90 in NW 0.6 mph 2.3 mph 50 % 0.00 in
15:17 91.0 °F 70.4 °F 29.90 in NE 2.2 mph 3.5 mph 51 % 0.00 in
15:22 90.9 °F 69.1 °F 29.90 in NW 0.9 mph 3.5 mph 49 % 0.00 in
15:27 91.0 °F 69.8 °F 29.90 in North 0.9 mph 2.0 mph 50 % 0.00 in
15:32 91.2 °F 67.5 °F 29.90 in WNW 1.5 mph 3.5 mph 46 % 0.00 in
15:37 91.0 °F 68.0 °F 29.90 in North 4.5 mph 5.8 mph 47 % 0.00 in
15:42 90.7 °F 67.7 °F 29.90 in NNE 2.2 mph 4.6 mph 47 % 0.00 in
15:47 90.7 °F 68.9 °F 29.90 in North 3.0 mph 4.6 mph 49 % 0.00 in
15:52 90.6 °F 68.8 °F 29.90 in North 1.8 mph 3.5 mph 49 % 0.00 in
15:57 90.6 °F 67.6 °F 29.90 in North 1.7 mph 3.5 mph 47 % 0.00 in
15:59 90.6 °F 68.8 °F 29.90 in NW 1.4 mph 3.5 mph 49 % 0.00 in
16:04 90.6 °F 69.4 °F 29.90 in North 0.1 mph 3.5 mph 50 % 0.00 in
16:09 90.8 °F 67.8 °F 29.90 in NNW 3.1 mph 4.6 mph 47 % 0.00 in
16:14 91.0 °F 69.2 °F 29.90 in NNE 1.9 mph 3.5 mph 49 % 0.00 in
16:19 90.7 °F 66.4 °F 29.90 in ENE 1.1 mph 2.3 mph 45 % 0.00 in
16:24 90.2 °F 67.9 °F 29.90 in NNE 2.1 mph 3.5 mph 48 % 0.00 in
16:29 90.1 °F 68.4 °F 29.90 in NE 0.8 mph 2.3 mph 49 % 0.00 in
16:34 89.8 °F 68.7 °F 29.90 in NE 1.5 mph 3.5 mph 50 % 0.00 in
16:39 89.7 °F 67.4 °F 29.90 in NNE 2.8 mph 4.6 mph 48 % 0.00 in
16:44 89.7 °F 69.2 °F 29.90 in NE 2.7 mph 5.0 mph 51 % 0.00 in
16:49 89.5 °F 68.4 °F 29.90 in NE 0.1 mph 3.5 mph 50 % 0.00 in
16:54 89.4 °F 68.3 °F 29.90 in NE 0.2 mph 1.2 mph 50 % 0.00 in
16:59 89.2 °F 68.7 °F 29.90 in Calm   1.2 mph 51 % 0.00 in
17:04 89.2 °F 69.3 °F 29.90 in ESE 1.4 mph 3.0 mph 52 % 0.00 in
17:09 89.1 °F 68.0 °F 29.90 in ESE 0.5 mph 1.2 mph 50 % 0.00 in
17:14 89.1 °F 68.0 °F 29.89 in ENE 1.1 mph 2.0 mph 50 % 0.00 in
17:20 88.4 °F 67.4 °F 29.89 in NE 0.1 mph 2.3 mph 50 % 0.00 in
17:25 88.1 °F 68.3 °F 29.90 in NE 0.6 mph 2.3 mph 52 % 0.00 in
17:30 87.8 °F 68.5 °F 29.89 in Calm     53 % 0.00 in
17:35 87.7 °F 67.3 °F 29.89 in Calm   1.2 mph 51 % 0.00 in
17:40 87.4 °F 67.6 °F 29.89 in Calm   2.3 mph 52 % 0.00 in
17:46 87.4 °F 67.1 °F 29.89 in Calm     51 % 0.00 in
17:51 87.0 °F 67.8 °F 29.89 in Calm     53 % 0.00 in
17:56 86.6 °F 68.0 °F 29.89 in Calm     54 % 0.00 in
18:01 86.4 °F 68.3 °F 29.89 in Calm   1.2 mph 55 % 0.00 in
18:06 86.2 °F 67.6 °F 29.89 in NNE 0.2 mph 1.0 mph 54 % 0.00 in
18:11 86.1 °F 68.6 °F 29.89 in SW 0.4 mph 1.2 mph 56 % 0.00 in
18:16 85.9 °F 67.9 °F 29.89 in Calm     55 % 0.00 in
18:21 85.7 °F 67.7 °F 29.89 in Calm     55 % 0.00 in
18:26 85.6 °F 68.1 °F 29.89 in WNW 0.2 mph 1.2 mph 56 % 0.00 in
18:31 85.5 °F 68.5 °F 29.89 in Calm     57 % 0.00 in
18:36 85.3 °F 67.8 °F 29.90 in WNW 0.1 mph 1.2 mph 56 % 0.00 in
18:41 85.2 °F 68.2 °F 29.89 in WNW 0.6 mph 1.0 mph 57 % 0.00 in
18:46 85.0 °F 68.1 °F 29.90 in West 0.4 mph 3.5 mph 57 % 0.00 in
18:52 84.8 °F 68.4 °F 29.90 in SSW 2.4 mph 4.6 mph 58 % 0.00 in
18:57 84.5 °F 68.1 °F 29.90 in SSW 0.5 mph 3.5 mph 58 % 0.00 in
19:02 84.4 °F 68.0 °F 29.90 in SSW 0.5 mph 2.3 mph 58 % 0.00 in
19:07 84.1 °F 68.2 °F 29.90 in WSW 0.1 mph 1.2 mph 59 % 0.00 in
19:12 83.8 °F 67.9 °F 29.90 in Calm   3.5 mph 59 % 0.00 in
19:17 83.4 °F 67.6 °F 29.90 in SSE 0.6 mph 3.5 mph 59 % 0.00 in
19:22 83.1 °F 67.8 °F 29.91 in Calm     60 % 0.00 in
19:27 82.8 °F 67.5 °F 29.90 in Calm   1.2 mph 60 % 0.00 in
19:32 82.5 °F 67.7 °F 29.91 in Calm   1.2 mph 61 % 0.00 in
19:37 82.2 °F 67.4 °F 29.91 in SE 0.7 mph 3.5 mph 61 % 0.00 in
19:42 81.9 °F 67.1 °F 29.91 in SE 0.5 mph 3.0 mph 61 % 0.00 in
19:47 81.6 °F 67.3 °F 29.91 in Calm   1.2 mph 62 % 0.00 in
19:52 81.3 °F 67.5 °F 29.91 in Calm     63 % 0.00 in
19:57 81.0 °F 67.7 °F 29.91 in Calm   1.0 mph 64 % 0.00 in
20:02 80.7 °F 67.8 °F 29.91 in Calm     65 % 0.00 in
20:07 80.4 °F 68.0 °F 29.91 in SE 0.1 mph 3.0 mph 66 % 0.00 in
20:13 80.1 °F 67.7 °F 29.91 in SE 0.6 mph 2.3 mph 66 % 0.00 in
20:18 79.7 °F 67.8 °F 29.91 in South 0.1 mph 1.2 mph 67 % 0.00 in
20:23 79.4 °F 67.5 °F 29.91 in South 0.2 mph 1.2 mph 67 % 0.00 in
20:28 79.0 °F 67.5 °F 29.91 in South 0.1 mph 1.2 mph 68 % 0.00 in
20:33 78.7 °F 67.7 °F 29.92 in South 0.2 mph 1.2 mph 69 % 0.00 in
20:38 78.5 °F 67.5 °F 29.92 in Calm   1.2 mph 69 % 0.00 in
20:43 78.2 °F 67.6 °F 29.92 in Calm   1.0 mph 70 % 0.00 in
20:48 77.8 °F 67.2 °F 29.92 in SSE 0.1 mph   70 % 0.00 in
20:53 77.6 °F 67.4 °F 29.92 in SSE 0.1 mph 1.2 mph 71 % 0.00 in
20:58 77.4 °F 67.3 °F 29.93 in SSE 0.2 mph 1.2 mph 71 % 0.00 in
21:03 77.2 °F 67.5 °F 29.93 in SSE 0.1 mph 1.2 mph 72 % 0.00 in
21:08 76.9 °F 67.6 °F 29.93 in Calm   1.2 mph 73 % 0.00 in
21:13 76.7 °F 67.4 °F 29.93 in SSE 0.2 mph 1.2 mph 73 % 0.00 in
21:18 76.5 °F 67.6 °F 29.93 in SSE 0.3 mph 1.2 mph 74 % 0.00 in
21:23 76.3 °F 67.8 °F 29.94 in SSE 0.1 mph 1.2 mph 75 % 0.00 in
21:28 76.1 °F 67.6 °F 29.94 in Calm   1.2 mph 75 % 0.00 in
21:33 76.0 °F 67.9 °F 29.94 in SSE 0.1 mph 1.2 mph 76 % 0.00 in
21:38 75.8 °F 68.1 °F 29.94 in SSE 0.2 mph 1.2 mph 77 % 0.00 in
21:43 75.6 °F 67.9 °F 29.94 in Calm   1.2 mph 77 % 0.00 in
21:48 75.4 °F 68.1 °F 29.94 in SSE 0.1 mph   78 % 0.00 in
21:53 75.3 °F 68.3 °F 29.95 in SSE 0.4 mph 1.2 mph 79 % 0.00 in
21:58 75.1 °F 68.1 °F 29.95 in SSE 0.1 mph 1.2 mph 79 % 0.00 in
22:03 75.0 °F 68.0 °F 29.94 in SSE 0.3 mph 1.2 mph 79 % 0.00 in
22:08 74.9 °F 68.3 °F 29.95 in SSE 0.2 mph 1.2 mph 80 % 0.00 in
22:13 74.8 °F 68.6 °F 29.95 in Calm   1.2 mph 81 % 0.00 in
22:18 74.6 °F 68.4 °F 29.95 in SSE 0.2 mph   81 % 0.00 in
22:23 74.5 °F 68.3 °F 29.95 in SSE 0.1 mph 2.3 mph 81 % 0.00 in
22:28 74.4 °F 68.2 °F 29.95 in Calm   1.2 mph 81 % 0.00 in
22:33 74.3 °F 68.1 °F 29.95 in SSE 1.1 mph 3.5 mph 81 % 0.00 in
22:39 74.3 °F 68.4 °F 29.95 in Calm   1.2 mph 82 % 0.00 in
22:44 74.2 °F 68.3 °F 29.95 in Calm   1.2 mph 82 % 0.00 in
22:49 74.1 °F 68.3 °F 29.95 in SSE 0.1 mph 1.2 mph 82 % 0.00 in
22:54 74.1 °F 68.6 °F 29.95 in SSE 0.2 mph 1.2 mph 83 % 0.00 in
22:59 74.0 °F 68.5 °F 29.95 in SSE 0.4 mph 2.3 mph 83 % 0.00 in
23:04 73.9 °F 68.4 °F 29.95 in SSE 0.1 mph 1.2 mph 83 % 0.00 in
23:09 73.8 °F 68.3 °F 29.95 in SSE 0.3 mph 1.2 mph 83 % 0.00 in
23:14 73.7 °F 68.2 °F 29.95 in Calm   1.2 mph 83 % 0.00 in
23:19 73.7 °F 68.2 °F 29.95 in SSE 0.2 mph 2.3 mph 83 % 0.00 in
23:24 73.6 °F 68.1 °F 29.95 in Calm   1.2 mph 83 % 0.00 in
23:29 73.6 °F 68.1 °F 29.95 in SSE 0.1 mph 1.2 mph 83 % 0.00 in
23:34 73.5 °F 68.0 °F 29.95 in SSE 0.6 mph 2.3 mph 83 % 0.00 in
23:40 73.5 °F 68.0 °F 29.95 in SSE 0.2 mph 2.3 mph 83 % 0.00 in
23:45 73.4 °F 67.9 °F 29.95 in SSE 0.2 mph 2.3 mph 83 % 0.00 in
23:50 73.4 °F 67.9 °F 29.96 in SW 0.1 mph 2.3 mph 83 % 0.00 in
23:55 73.3 °F 67.8 °F 29.96 in SW 0.4 mph 3.5 mph 83 % 0.00 in
Crab Meadow Weather
Compliments of Weather Underground - 3 mb

Script developed by  Jim McMurry - jmcmurry@mwt.net Adapted for the template by  Wim van der Kuil - Leuven-Template.eu

Astronomy: Venus rotates east to west.